createdAt,value
2017-11-10T00:01:41.179Z,71.70
2017-11-10T00:04:09.310Z,71.50
2017-11-10T00:06:38.244Z,71.10
2017-11-10T00:09:06.415Z,71.10
2017-11-10T00:11:34.589Z,71.00
2017-11-10T00:14:03.475Z,70.50
2017-11-10T00:16:31.590Z,70.40
2017-11-10T00:18:59.821Z,70.70
2017-11-10T00:21:27.929Z,70.40
2017-11-10T00:23:56.169Z,69.50
2017-11-10T00:26:24.343Z,69.20
2017-11-10T00:28:52.439Z,69.20
2017-11-10T00:31:20.581Z,69.30
2017-11-10T00:33:48.757Z,68.60
2017-11-10T00:36:17.648Z,68.10
2017-11-10T00:38:45.761Z,68.10
2017-11-10T00:41:13.882Z,68.50
2017-11-10T00:43:42.012Z,68.40
2017-11-10T00:46:10.157Z,68.60
2017-11-10T00:48:38.411Z,68.70
2017-11-10T00:51:06.504Z,68.40
2017-11-10T00:53:34.758Z,68.30
2017-11-10T00:56:02.867Z,68.40
2017-11-10T00:58:31.002Z,68.40
2017-11-10T01:00:59.173Z,68.40
2017-11-10T01:03:27.346Z,68.60
2017-11-10T01:05:55.457Z,68.90
2017-11-10T01:08:23.607Z,68.70
2017-11-10T01:10:51.714Z,69.00
2017-11-10T01:13:19.859Z,68.70
2017-11-10T01:15:48.010Z,68.50
2017-11-10T01:18:16.132Z,68.70
2017-11-10T01:20:44.352Z,68.80
2017-11-10T01:23:12.525Z,68.90
2017-11-10T01:25:40.644Z,68.80
2017-11-10T01:28:08.872Z,68.60
2017-11-10T01:30:37.043Z,68.50
2017-11-10T01:33:05.927Z,68.60
2017-11-10T01:35:34.109Z,68.50
2017-11-10T01:38:02.257Z,68.40
2017-11-10T01:40:31.169Z,68.30
2017-11-10T01:42:59.271Z,68.30
2017-11-10T01:45:27.414Z,67.90
2017-11-10T01:48:07.159Z,68.20
2017-11-10T01:50:35.275Z,68.00
2017-11-10T01:53:03.408Z,67.70
2017-11-10T01:55:31.532Z,67.70
2017-11-10T01:57:59.674Z,68.10
2017-11-10T02:00:27.775Z,68.20
2017-11-10T02:02:56.664Z,68.50
2017-11-10T02:05:24.880Z,68.50
2017-11-10T02:07:53.750Z,67.80
2017-11-10T02:10:21.881Z,67.80
2017-11-10T02:12:50.026Z,68.20
2017-11-10T02:15:18.143Z,68.10
2017-11-10T02:17:46.360Z,67.40
2017-11-10T02:20:14.472Z,67.30
2017-11-10T02:22:43.629Z,67.90
2017-11-10T02:25:12.500Z,68.20
2017-11-10T02:27:41.414Z,68.30
2017-11-10T02:30:09.528Z,68.30
2017-11-10T02:32:37.672Z,68.50
2017-11-10T02:35:05.815Z,68.60
2017-11-10T02:37:34.001Z,68.60
2017-11-10T02:40:02.117Z,68.70
2017-11-10T02:42:30.345Z,68.40
2017-11-10T02:44:58.516Z,68.50
2017-11-10T02:47:26.693Z,68.70
2017-11-10T02:49:57.230Z,68.70
2017-11-10T02:52:25.343Z,68.70
2017-11-10T02:54:53.564Z,68.50
2017-11-10T02:57:21.689Z,68.50
2017-11-10T02:59:49.823Z,68.70
2017-11-10T03:02:17.934Z,68.40
2017-11-10T03:04:46.080Z,68.60
2017-11-10T03:07:14.202Z,68.40
2017-11-10T03:09:42.363Z,68.20
2017-11-10T03:12:10.570Z,68.20
2017-11-10T03:14:38.746Z,67.90
2017-11-10T03:17:07.022Z,67.60
2017-11-10T03:19:35.149Z,67.60
2017-11-10T03:22:03.367Z,68.20
2017-11-10T03:24:32.256Z,67.60
2017-11-10T03:27:00.433Z,67.60
2017-11-10T03:29:28.574Z,67.60
2017-11-10T03:31:57.461Z,67.80
2017-11-10T03:34:26.386Z,67.30
2017-11-10T03:36:54.555Z,67.20
2017-11-10T03:39:22.727Z,67.10
2017-11-10T03:41:50.840Z,67.00
2017-11-10T03:44:19.178Z,67.20
2017-11-10T03:46:47.321Z,67.00
2017-11-10T03:49:16.244Z,67.00
2017-11-10T03:51:44.354Z,67.00
2017-11-10T03:54:12.500Z,66.20
2017-11-10T03:56:40.616Z,66.30
2017-11-10T03:59:09.556Z,67.00
2017-11-10T04:01:37.667Z,67.00
2017-11-10T04:04:05.899Z,67.00
2017-11-10T04:06:34.072Z,67.00
2017-11-10T04:09:02.181Z,66.80
2017-11-10T04:11:30.323Z,66.90
2017-11-10T04:13:58.484Z,66.50
2017-11-10T04:16:26.659Z,66.70
2017-11-10T04:18:54.761Z,66.70
2017-11-10T04:21:23.012Z,66.90
2017-11-10T04:23:52.037Z,67.20
2017-11-10T04:26:20.148Z,67.20
2017-11-10T04:28:48.288Z,67.00
2017-11-10T04:31:16.417Z,67.20
2017-11-10T04:33:44.579Z,67.20
2017-11-10T04:36:13.459Z,66.70
2017-11-10T04:38:41.601Z,66.70
2017-11-10T04:41:09.818Z,66.40
2017-11-10T04:43:37.988Z,66.00
2017-11-10T04:46:06.878Z,66.00
2017-11-10T04:48:35.053Z,65.90
2017-11-10T04:51:03.165Z,65.90
2017-11-10T04:53:31.397Z,65.90
2017-11-10T04:56:00.258Z,66.00
2017-11-10T04:58:29.281Z,65.70
2017-11-10T05:00:57.388Z,65.70
2017-11-10T05:03:25.632Z,65.60
2017-11-10T05:05:53.749Z,65.50
2017-11-10T05:08:21.976Z,65.30
2017-11-10T05:10:50.071Z,65.10
2017-11-10T05:13:18.217Z,65.20
2017-11-10T05:15:46.338Z,65.20
2017-11-10T05:18:14.562Z,65.30
2017-11-10T05:20:42.684Z,65.00
2017-11-10T05:23:10.909Z,64.50
2017-11-10T05:25:39.012Z,64.40
2017-11-10T05:28:07.152Z,64.40
2017-11-10T05:30:35.327Z,64.20
2017-11-10T05:33:03.448Z,64.20
2017-11-10T05:35:31.672Z,63.90
2017-11-10T05:37:59.784Z,64.20
2017-11-10T05:40:28.018Z,64.30
2017-11-10T05:42:56.191Z,64.20
2017-11-10T05:45:24.322Z,64.50
2017-11-10T05:47:53.217Z,64.80
2017-11-10T05:50:22.142Z,64.80
2017-11-10T05:52:50.267Z,64.80
2017-11-10T05:55:18.396Z,64.80
2017-11-10T05:57:46.514Z,64.80
2017-11-10T06:00:14.736Z,64.80
2017-11-10T06:02:42.908Z,65.10
2017-11-10T06:05:11.024Z,65.30
2017-11-10T06:07:39.253Z,65.10
2017-11-10T06:10:07.378Z,65.00
2017-11-10T06:12:35.597Z,64.60
2017-11-10T06:15:03.773Z,65.20
2017-11-10T06:17:31.965Z,65.10
2017-11-10T06:20:00.080Z,65.00
2017-11-10T06:22:29.015Z,65.60
2017-11-10T06:24:57.179Z,65.60
2017-11-10T06:27:25.296Z,66.60
2017-11-10T06:29:53.445Z,66.70
2017-11-10T06:32:21.577Z,66.80
2017-11-10T06:34:50.479Z,67.00
2017-11-10T06:37:18.619Z,67.10
2017-11-10T06:39:46.761Z,67.10
2017-11-10T06:42:14.907Z,67.30
2017-11-10T06:44:43.074Z,67.30
2017-11-10T06:47:11.934Z,67.20
2017-11-10T06:49:40.857Z,67.20
2017-11-10T06:52:08.976Z,67.20
2017-11-10T06:54:37.108Z,67.00
2017-11-10T06:57:05.240Z,66.70
2017-11-10T06:59:34.170Z,66.20
2017-11-10T07:02:02.296Z,66.20
2017-11-10T07:04:31.207Z,67.00
2017-11-10T07:06:59.398Z,66.10
2017-11-10T07:09:27.524Z,66.00
2017-11-10T07:11:55.638Z,65.90
2017-11-10T07:14:23.840Z,66.10
2017-11-10T07:16:52.001Z,65.90
2017-11-10T07:19:20.160Z,66.00
2017-11-10T07:21:48.334Z,66.00
2017-11-10T07:24:16.511Z,66.10
2017-11-10T07:26:44.664Z,66.20
2017-11-10T07:29:12.863Z,66.00
2017-11-10T07:31:41.034Z,66.40
2017-11-10T07:34:09.372Z,66.40
2017-11-10T07:36:37.593Z,66.40
2017-11-10T07:39:05.711Z,66.50
2017-11-10T07:41:33.851Z,66.70
2017-11-10T07:44:02.117Z,66.80
2017-11-10T07:46:30.237Z,66.90
2017-11-10T07:48:58.360Z,67.00
2017-11-10T07:51:27.306Z,67.10
2017-11-10T07:53:55.465Z,67.10
2017-11-10T07:56:23.673Z,67.00
2017-11-10T07:58:51.908Z,66.80
2017-11-10T08:01:20.079Z,66.80
2017-11-10T08:03:48.212Z,66.60
2017-11-10T08:06:16.429Z,66.80
2017-11-10T08:08:44.599Z,67.10
2017-11-10T08:11:12.782Z,67.20
2017-11-10T08:13:40.909Z,67.30
2017-11-10T08:16:09.816Z,67.30
2017-11-10T08:18:38.040Z,67.30
2017-11-10T08:21:06.174Z,67.10
2017-11-10T08:23:34.363Z,67.40
2017-11-10T08:26:02.483Z,67.20
2017-11-10T08:28:30.700Z,67.20
2017-11-10T08:30:58.843Z,66.90
2017-11-10T08:33:27.761Z,66.90
2017-11-10T08:35:55.877Z,66.90
2017-11-10T08:38:24.827Z,66.70
2017-11-10T08:40:52.976Z,66.60
2017-11-10T08:43:21.899Z,67.10
2017-11-10T08:45:50.073Z,67.00
2017-11-10T08:48:18.239Z,66.80
2017-11-10T08:50:46.381Z,67.10
2017-11-10T08:53:14.513Z,67.20
2017-11-10T08:55:43.445Z,66.00
2017-11-10T08:58:11.626Z,66.20
2017-11-10T09:00:40.523Z,65.70
2017-11-10T09:03:08.666Z,65.70
2017-11-10T09:05:37.602Z,65.70
2017-11-10T09:08:05.740Z,65.70
2017-11-10T09:10:34.640Z,65.40
2017-11-10T09:13:02.841Z,65.40
2017-11-10T09:15:31.011Z,65.10
2017-11-10T09:17:59.129Z,64.60
2017-11-10T09:20:27.354Z,64.90
2017-11-10T09:22:55.503Z,65.10
2017-11-10T09:25:24.396Z,64.90
2017-11-10T09:27:53.308Z,64.50
2017-11-10T09:30:36.313Z,64.60
2017-11-10T09:33:10.241Z,64.40
2017-11-10T09:38:59.106Z,62.90
2017-11-10T09:41:45.032Z,63.50
2017-11-10T09:47:29.616Z,63.40
2017-11-10T09:50:18.446Z,63.30
2017-11-10T09:53:04.325Z,63.10
2017-11-10T09:55:38.430Z,63.00
2017-11-10T09:58:28.842Z,63.20
2017-11-10T10:04:02.385Z,63.10
2017-11-10T10:06:33.023Z,63.50
2017-11-10T10:09:06.694Z,63.50
2017-11-10T10:11:40.598Z,63.20
2017-11-10T10:14:21.499Z,62.90
2017-11-10T10:16:55.378Z,63.10
2017-11-10T10:32:49.745Z,62.10
2017-11-10T10:35:17.919Z,61.70
2017-11-10T10:37:46.198Z,62.60
2017-11-10T10:40:14.308Z,62.00
2017-11-10T10:42:42.465Z,62.20
2017-11-10T10:45:10.627Z,62.50
2017-11-10T10:47:38.752Z,62.30
2017-11-10T10:50:07.660Z,62.00
2017-11-10T10:52:35.816Z,62.00
2017-11-10T10:55:04.721Z,61.70
2017-11-10T10:57:32.881Z,61.60
2017-11-10T11:00:01.014Z,61.80
2017-11-10T11:02:29.174Z,61.90
2017-11-10T11:04:57.313Z,61.60
2017-11-10T11:07:25.462Z,61.30
2017-11-10T11:09:53.676Z,61.40
2017-11-10T11:12:21.827Z,60.80
2017-11-10T11:14:49.984Z,60.50
2017-11-10T11:17:18.877Z,60.40
2017-11-10T11:19:47.795Z,60.40
2017-11-10T11:22:15.967Z,60.40
2017-11-10T11:24:44.139Z,60.30
2017-11-10T11:27:12.262Z,60.20
2017-11-10T11:29:40.486Z,60.40
2017-11-10T11:32:08.661Z,60.30
2017-11-10T11:34:36.813Z,60.10
2017-11-10T11:37:05.007Z,60.50
2017-11-10T11:39:33.148Z,60.60
2017-11-10T11:42:02.043Z,60.40
2017-11-10T11:44:30.201Z,60.40
2017-11-10T11:46:59.135Z,60.00
2017-11-10T11:49:27.275Z,60.40
2017-11-10T11:51:57.172Z,61.00
2017-11-10T11:54:25.350Z,61.00
2017-11-10T11:56:53.468Z,60.80
2017-11-10T11:59:21.647Z,60.80
2017-11-10T12:01:49.777Z,61.10
2017-11-10T12:04:17.940Z,61.10
2017-11-10T12:06:46.860Z,61.30
2017-11-10T12:09:15.009Z,61.30
2017-11-10T12:11:43.932Z,61.10
2017-11-10T12:14:12.065Z,61.10
2017-11-10T12:16:40.215Z,60.70
2017-11-10T12:19:08.366Z,60.70
2017-11-10T12:21:36.541Z,60.80
2017-11-10T12:24:05.617Z,60.60
2017-11-10T12:26:33.790Z,60.60
2017-11-10T12:29:01.963Z,60.20
2017-11-10T12:31:30.112Z,60.00
2017-11-10T12:33:58.310Z,60.40
2017-11-10T12:36:26.581Z,60.10
2017-11-10T12:38:54.701Z,60.50
2017-11-10T12:41:22.848Z,60.50
2017-11-10T12:43:51.003Z,60.60
2017-11-10T12:46:19.223Z,60.60
2017-11-10T12:48:47.372Z,60.70
2017-11-10T12:51:15.520Z,60.40
2017-11-10T12:53:43.694Z,60.80
2017-11-10T12:56:11.845Z,61.10
2017-11-10T12:58:40.737Z,61.70
2017-11-10T13:01:08.889Z,61.70
2017-11-10T13:03:37.828Z,61.60
2017-11-10T13:06:05.976Z,61.60
2017-11-10T13:08:34.880Z,62.50
2017-11-10T13:11:03.003Z,62.40
2017-11-10T13:13:31.229Z,63.20
2017-11-10T13:15:59.401Z,63.50
2017-11-10T13:18:27.522Z,64.70
2017-11-10T13:20:55.660Z,65.30
2017-11-10T13:23:23.817Z,65.90
2017-11-10T13:25:51.944Z,66.20
2017-11-10T13:28:20.092Z,66.20
2017-11-10T13:30:48.273Z,65.50
2017-11-10T13:33:16.412Z,66.30
2017-11-10T13:35:44.563Z,67.30
2017-11-10T13:38:12.689Z,66.80
2017-11-10T13:40:40.854Z,67.00
2017-11-10T13:43:08.998Z,67.00
2017-11-10T13:45:37.284Z,67.60
2017-11-10T13:48:05.560Z,67.10
2017-11-10T13:50:33.745Z,67.80
2017-11-10T13:53:01.902Z,67.80
2017-11-10T13:55:30.620Z,68.30
2017-11-10T13:57:58.783Z,69.10
2017-11-10T14:00:27.032Z,69.70
2017-11-10T14:02:55.149Z,69.20
2017-11-10T14:05:23.389Z,69.30
2017-11-10T14:07:51.496Z,69.40
2017-11-10T14:10:20.467Z,69.20
2017-11-10T14:12:48.699Z,69.20
2017-11-10T14:15:16.812Z,69.60
2017-11-10T14:17:44.961Z,70.10
2017-11-10T14:20:13.100Z,70.60
2017-11-10T14:22:41.995Z,70.30
2017-11-10T14:25:10.916Z,70.40
2017-11-10T14:27:39.116Z,70.20
2017-11-10T14:30:07.468Z,70.70
2017-11-10T14:32:36.664Z,70.40
2017-11-10T14:35:04.858Z,70.90
2017-11-10T14:37:32.999Z,71.20
2017-11-10T14:40:01.177Z,71.90
2017-11-10T14:42:29.301Z,72.00
2017-11-10T14:44:57.520Z,71.90
2017-11-10T14:47:25.652Z,72.30
2017-11-10T14:49:53.867Z,72.00
2017-11-10T14:52:22.050Z,72.80
2017-11-10T14:54:50.204Z,72.50
2017-11-10T14:57:18.388Z,72.00
2017-11-10T14:59:46.510Z,72.70
2017-11-10T15:02:14.695Z,72.80
2017-11-10T15:04:42.825Z,72.90
2017-11-10T15:07:11.076Z,72.90
2017-11-10T15:09:39.210Z,73.10
2017-11-10T15:12:07.367Z,73.20
2017-11-10T15:14:35.513Z,73.10
2017-11-10T15:17:03.668Z,73.30
2017-11-10T15:19:31.800Z,73.40
2017-11-10T15:21:59.955Z,73.00
2017-11-10T15:24:28.122Z,73.80
2017-11-10T15:26:56.361Z,73.50
2017-11-10T15:29:24.476Z,73.30
2017-11-10T15:31:52.716Z,73.30
2017-11-10T15:34:20.897Z,73.70
2017-11-10T15:36:49.056Z,73.80
2017-11-10T15:39:17.228Z,73.70
2017-11-10T15:41:45.503Z,73.90
2017-11-10T15:44:13.625Z,73.60
2017-11-10T15:46:41.855Z,73.50
2017-11-10T15:49:10.025Z,73.50
2017-11-10T15:51:38.301Z,73.30
2017-11-10T15:54:06.417Z,73.50
2017-11-10T15:56:34.578Z,73.20
2017-11-10T15:59:02.717Z,73.10
2017-11-10T16:01:30.838Z,73.10
2017-11-10T16:03:58.977Z,73.00
2017-11-10T16:06:27.101Z,73.30
2017-11-10T16:08:56.028Z,73.20
2017-11-10T16:11:24.194Z,73.20
2017-11-10T16:13:52.315Z,73.20
2017-11-10T16:16:20.542Z,74.00
2017-11-10T16:18:48.676Z,73.10
2017-11-10T16:21:17.582Z,73.80
2017-11-10T16:23:46.495Z,73.50
2017-11-10T16:26:14.622Z,73.50
2017-11-10T16:28:43.525Z,73.60
2017-11-10T16:31:12.453Z,72.60
2017-11-10T16:33:40.613Z,72.60
2017-11-10T16:36:08.754Z,72.00
2017-11-10T16:38:36.892Z,72.00
2017-11-10T16:41:05.033Z,71.50
2017-11-10T16:43:33.184Z,71.20
2017-11-10T16:46:02.076Z,70.70
2017-11-10T16:48:30.241Z,70.70
2017-11-10T16:50:59.129Z,70.50
2017-11-10T16:53:28.061Z,70.40
2017-11-10T16:55:56.192Z,70.40
2017-11-10T16:58:25.213Z,70.50
2017-11-10T17:00:53.384Z,70.50
2017-11-10T17:03:22.289Z,70.90
2017-11-10T17:05:50.423Z,70.90
2017-11-10T17:08:19.344Z,70.80
2017-11-10T17:10:47.512Z,70.80
2017-11-10T17:13:15.690Z,70.50
2017-11-10T17:15:43.819Z,70.40
2017-11-10T17:18:11.948Z,69.90
2017-11-10T17:20:40.080Z,70.20
2017-11-10T17:23:09.045Z,70.10
2017-11-10T17:25:37.271Z,70.00
2017-11-10T17:28:05.422Z,69.90
2017-11-10T17:30:33.581Z,70.40
2017-11-10T17:33:02.483Z,71.30
2017-11-10T17:35:31.373Z,71.30
2017-11-10T17:38:00.268Z,71.20
2017-11-10T17:40:29.163Z,71.20
2017-11-10T17:42:57.417Z,71.20
2017-11-10T17:45:26.349Z,71.10
2017-11-10T17:47:54.613Z,71.80
2017-11-10T17:50:22.850Z,71.50
2017-11-10T17:52:51.163Z,71.00
2017-11-10T17:55:19.271Z,71.50
2017-11-10T17:57:47.407Z,71.80
2017-11-10T18:00:15.681Z,71.80
2017-11-10T18:02:44.676Z,71.80
2017-11-10T18:05:12.845Z,71.80
2017-11-10T18:07:40.973Z,71.30
2017-11-10T18:10:09.090Z,71.60
2017-11-10T18:12:37.220Z,71.90
2017-11-10T18:15:05.434Z,72.00
2017-11-10T18:17:33.590Z,72.00
2017-11-10T18:20:02.481Z,72.00
2017-11-10T18:22:31.396Z,72.20
2017-11-10T18:24:59.532Z,72.10
2017-11-10T18:27:28.436Z,72.90
2017-11-10T18:29:56.597Z,72.90
2017-11-10T18:32:25.498Z,73.50
2017-11-10T18:34:54.405Z,74.40
2017-11-10T18:37:22.559Z,74.30
2017-11-10T18:39:51.468Z,74.50
2017-11-10T18:42:19.605Z,74.40
2017-11-10T18:44:47.722Z,75.00
2017-11-10T18:47:15.828Z,75.40
2017-11-10T18:49:43.960Z,75.40
2017-11-10T18:52:12.096Z,75.80
2017-11-10T18:54:47.430Z,74.90
2017-11-10T18:57:15.545Z,74.80
2017-11-10T18:59:43.675Z,75.10
2017-11-10T19:02:11.885Z,74.30
2017-11-10T19:04:40.887Z,74.20
2017-11-10T19:07:09.008Z,74.20
2017-11-10T19:09:37.328Z,73.70
2017-11-10T19:12:05.429Z,73.30
2017-11-10T19:14:33.578Z,73.20
2017-11-10T19:17:01.752Z,72.70
2017-11-10T19:19:29.862Z,72.80
2017-11-10T19:21:58.098Z,72.70
2017-11-10T19:24:27.166Z,72.60
2017-11-10T19:26:56.044Z,72.00
2017-11-10T19:29:24.969Z,72.10
2017-11-10T19:31:53.119Z,72.10
2017-11-10T19:34:22.001Z,72.20
2017-11-10T19:36:50.922Z,72.10
2017-11-10T19:39:19.085Z,72.00
2017-11-10T19:41:47.231Z,71.70
2017-11-10T19:44:15.366Z,72.00
2017-11-10T19:46:43.621Z,71.80
2017-11-10T19:49:11.899Z,72.10
2017-11-10T19:51:40.026Z,72.30
2017-11-10T19:54:08.171Z,72.30
2017-11-10T19:56:36.486Z,72.20
2017-11-10T19:59:04.739Z,72.40
2017-11-10T20:01:32.974Z,72.30
2017-11-10T20:04:01.110Z,72.30
2017-11-10T20:06:30.003Z,72.90
2017-11-10T20:08:59.227Z,72.30
2017-11-10T20:11:27.472Z,72.30
2017-11-10T20:13:56.678Z,72.40
2017-11-10T20:16:25.768Z,72.40
2017-11-10T20:18:53.897Z,72.30
2017-11-10T20:21:22.030Z,72.60
2017-11-10T20:23:50.318Z,72.80
2017-11-10T20:26:18.601Z,72.80
2017-11-10T20:28:46.765Z,72.80
2017-11-10T20:31:15.777Z,73.40
2017-11-10T20:33:44.060Z,73.40
2017-11-10T20:36:12.258Z,73.40
2017-11-10T20:38:40.666Z,73.40
2017-11-10T20:41:08.919Z,73.50
2017-11-10T20:43:37.350Z,73.90
2017-11-10T20:46:05.481Z,74.00
2017-11-10T20:48:33.617Z,74.30
2017-11-10T20:51:01.771Z,74.30
2017-11-10T20:53:29.996Z,74.40
2017-11-10T20:55:58.128Z,74.50
2017-11-10T20:58:26.813Z,74.60
2017-11-10T21:00:54.973Z,74.30
2017-11-10T21:03:23.860Z,74.70
2017-11-10T21:05:52.143Z,74.60
2017-11-10T21:08:21.531Z,74.90
2017-11-10T21:10:50.014Z,75.40
2017-11-10T21:13:18.227Z,75.10
2017-11-10T21:15:47.192Z,75.50
2017-11-10T21:18:15.325Z,75.50
2017-11-10T21:20:43.542Z,75.50
2017-11-10T21:23:12.722Z,76.20
2017-11-10T21:25:41.043Z,76.20
2017-11-10T21:28:09.210Z,76.80
2017-11-10T21:30:38.145Z,76.20
2017-11-10T21:33:06.348Z,76.20
2017-11-10T21:35:34.500Z,76.10
2017-11-10T21:38:02.988Z,76.00
2017-11-10T21:40:31.307Z,75.90
2017-11-10T21:43:00.294Z,75.90
2017-11-10T21:45:28.474Z,75.70
2017-11-10T21:47:56.827Z,75.80
2017-11-10T21:50:25.108Z,75.90
2017-11-10T21:52:53.978Z,75.60
2017-11-10T21:55:22.889Z,75.50
2017-11-10T21:57:51.001Z,75.50
2017-11-10T22:00:19.338Z,75.30
2017-11-10T22:02:47.614Z,75.10
2017-11-10T22:05:16.608Z,74.90
2017-11-10T22:07:44.785Z,74.90
2017-11-10T22:10:12.908Z,74.60
2017-11-10T22:12:41.136Z,74.60
2017-11-10T22:15:09.525Z,74.10
2017-11-10T22:17:37.848Z,74.20
2017-11-10T22:20:06.082Z,74.20
2017-11-10T22:22:34.212Z,74.20
2017-11-10T22:25:02.337Z,74.10
2017-11-10T22:27:30.529Z,74.00
2017-11-10T22:29:58.642Z,74.00
2017-11-10T22:32:27.123Z,74.00
2017-11-10T22:34:55.297Z,74.10
2017-11-10T22:37:23.509Z,74.00
2017-11-10T22:39:51.653Z,73.90
2017-11-10T22:42:19.765Z,74.20
2017-11-10T22:44:48.202Z,74.40
2017-11-10T22:47:16.383Z,74.70
2017-11-10T22:49:44.569Z,74.70
2017-11-10T22:52:12.701Z,75.10
2017-11-10T22:54:40.884Z,75.30
2017-11-10T22:57:09.762Z,76.20
2017-11-10T22:59:38.694Z,76.60
2017-11-10T23:02:07.063Z,76.60
2017-11-10T23:04:35.320Z,76.80
2017-11-10T23:07:03.490Z,76.90
2017-11-10T23:09:31.621Z,76.90
2017-11-10T23:11:59.757Z,77.00
2017-11-10T23:14:28.046Z,77.30
2017-11-10T23:16:56.173Z,77.30
2017-11-10T23:19:25.082Z,77.50
2017-11-10T23:21:53.465Z,77.50
2017-11-10T23:24:21.619Z,77.50
2017-11-10T23:26:49.812Z,77.40
2017-11-10T23:29:17.983Z,77.50
2017-11-10T23:31:46.158Z,77.80
2017-11-10T23:34:14.340Z,78.00
2017-11-10T23:36:42.606Z,78.30
2017-11-10T23:39:11.503Z,78.50
2017-11-10T23:41:40.441Z,78.80
2017-11-10T23:44:08.663Z,78.80
2017-11-10T23:46:36.835Z,79.70
2017-11-10T23:49:05.008Z,79.10
2017-11-10T23:51:33.149Z,79.20
2017-11-10T23:54:02.073Z,79.80
2017-11-10T23:56:30.556Z,79.80
2017-11-10T23:58:58.734Z,79.50
